Aérodrome :
LOGIN :

S'inscrire | Disclaimer

   EN    FR    IT 

 










Légende :    VFR   VFR Marginal   IFR   IFR Intensif   IFR Très Intensif
Visi : 
Plafond : 
>= 8 km
>= 3000ft
5 à 8 km
1000 à 3000 ft
1500m à 5 km
500 à 1000 ft
800 à 1500m
200 à 500 ft
< 800m
< 200 ft
Symboles :   Orages  Brouillard  Fortes neiges  Fortes précipitations  Vent > 20 kt
SIGMETs :   Divers  Orages  Givrage  Turbulence  Onde Orograph.  Cendres Volcan.







- Altitude de l'aérodrome : 14 ft
- Code IATA : BRE


EDDW - Bremen Neuenland

DERNIER METAR :
  • 281020Z 12010KT 100V170 9999 FEW024 BKN047 BKN084 21/15 Q0999 TEMPO 13015G25KT SHRA BKN030CB

METARs EXPIRÉS :
  • 280950Z 12010KT 9999 FEW024 BKN047 BKN084 21/15 Q0999 TEMPO 13015G25KT SHRA BKN030CB
  • 280920Z 11014KT 9999 FEW024 BKN049 BKN085 21/15 Q0999 TEMPO 13015G25KT SHRA BKN030CB
  • 280850Z 11013KT 9999 FEW024 BKN085 BKN130 21/15 Q0999 NOSIG
  • 280820Z 11010KT 070V130 CAVOK 20/14 Q1000 NOSIG
  • 280750Z 11013KT CAVOK 19/13 Q1000 NOSIG

TAF TAF EDDW
Valide du 28 à 06h jusqu'au 29 à 06h UTC


280500Z 2806/2906 09010KT CAVOK
TEMPO 2814/2821 19015G30KT 4000 TSRA BKN020CB
BECMG 2817/2819 20005KT
BECMG 2821/2824 3000 BR
PROB40
TEMPO 2823/2905 BKN004
BECMG 2902/2905 9999
TEMPO 2903/2906 VRB03KT
Pas de NOTAMs connus pour ce terrain.



MET'MAP, la Météo Aéronautique d'un coup d'oeil ! - Copyright ORBIFLY Décembre 2007 - Disclaimer

ORBIFLY MET'MAP TEAM :

Programmation & Développement : Alexandra Zaïnal
Conception & Développement : Baudouin d'Aumeries
Co-Programmation & Développement : Marc-Olivier Méhu
Soutien technique & logistique : Manuel Goepfert

Contact : metmap@orbifly.com




SOURCES & CREDITS :

   NOAA